• Join FlightAware (Why Join?)
  • Login
  • US Flag 
01:38PM EDT


 

Airport Tracker/Info


-or-


 

Live Flight TrackerFlight Track Log ✈ N307TS ✈ 26-Mar-2014 ✈ KRAP - KBIL

Flight Track Log - Related Links

Times and Time Zones

All times are in EDT time to prevent confusion due to time zone crossing. See the N307TS flight status page for this flight to view local times or setup timezone preferences in your user account.

Time Position Orientation Groundspeed Altitude Reporting Facility
EDT Latitude Longitude Course Direction KTS MPH feet Rate Location/Type
03:37PM 44.0808 -103.1525 296° West 169 194 5,700  Level Denver Center
03:38PM 44.1106 -103.2386 296° West 168 193 7,900 1,320 Climbing Denver Center
03:38PM 44.1217 -103.2661 299° West 134 154 8,400 1,080 Climbing Denver Center
03:39PM 44.1314 -103.2947 295° West 174 200 9,000 1,200 Climbing Denver Center
03:40PM 44.1422 -103.3239 297° West 167 192 9,700 1,380 Climbing Denver Center
03:40PM 44.1525 -103.3536 296° West 180 207 10,300 1,320 Climbing Denver Center
03:41PM 44.1675 -103.3947 297° West 175 201 11,100 1,200 Climbing Denver Center
03:41PM 44.1722 -103.4161 287° West 180 207 11,500 1,140 Climbing Denver Center
03:42PM 44.1886 -103.4547 301° West 175 201 12,300 1,200 Climbing Denver Center
03:43PM 44.2133 -103.5231 297° West 176 203 13,700 1,200 Climbing Denver Center
03:44PM 44.2344 -103.5853 295° West 179 206 14,900 1,260 Climbing Denver Center
03:45PM 44.2597 -103.6586 296° West 181 208 16,400 1,260 Climbing Denver Center
03:46PM 44.2819 -103.7228 296° West 185 213 17,600 1,440 Climbing Denver Center
03:47PM 44.3036 -103.7836 296° West 185 213 19,400 1,140 Climbing Denver Center
03:48PM 44.3294 -103.8617 295° West 194 223 20,000 240 Climbing Denver Center
03:49PM 44.3556 -103.9383 295° West 217 250 20,000  Level Denver Center
03:50PM 44.3883 -104.0347 295° West 239 275 20,000  Level Denver Center
03:51PM 44.4178 -104.1172 297° West 244 281 20,000  Level Denver Center
03:52PM 44.4508 -104.2119 296° West 244 281 20,000  Level Denver Center
03:53PM 44.4778 -104.2936 295° West 244 281 20,000  Level Denver Center
03:54PM 44.5106 -104.3892 296° West 244 281 20,100 360 Climbing Denver Center
03:55PM 44.5369 -104.4658 296° West 240 276 20,800 660 Climbing Denver Center
03:56PM 44.5658 -104.5542 295° West 228 262 21,500 540 Climbing Denver Center
03:57PM 44.5908 -104.6283 295° West 224 258 22,000 240 Climbing Denver Center
03:58PM 44.6178 -104.7072 296° West 229 264 22,000  Level Denver Center
03:59PM 44.6500 -104.8053 295° West 243 280 22,000  Level Denver Center
04:00PM 44.6775 -104.8892 295° West 245 282 22,000  Level Denver Center
04:01PM 44.7108 -104.9864 296° West 246 283 22,000  Level Denver Center
04:02PM 44.7372 -105.0719 293° West 247 284 22,000  Level Denver Center
04:03PM 44.7697 -105.1656 296° West 249 287 22,000  Level Denver Center
04:04PM 44.7967 -105.2544 293° West 249 287 22,000  Level Denver Center
04:05PM 44.8267 -105.3419 296° West 249 287 22,000  Level Denver Center
04:06PM 44.8553 -105.4294 295° West 249 287 22,000  Level Denver Center
04:07PM 44.8908 -105.5356 295° West 249 287 22,000  Level Denver Center
04:08PM 44.9192 -105.6253 294° West 249 287 22,000  Level Denver Center
04:09PM 44.9467 -105.7156 293° West 249 287 22,000  Level Denver Center
04:10PM 44.9761 -105.8039 295° West 249 287 22,000  Level Denver Center
04:11PM 45.0042 -105.8922 294° West 249 287 22,000  Level Denver Center
04:13PM 45.0322 -105.9817 294° West 249 287 22,000  Level Denver Center
04:14PM 45.0611 -106.0697 295° West 249 287 22,000  Level Denver Center
04:15PM 45.1022 -106.1936 295° West 249 287 22,000  Level Salt Lake Center
04:16PM 45.1283 -106.2817 293° West 249 287 22,000  Level Salt Lake Center
04:17PM 45.1533 -106.3703 292° West 247 284 22,000  Level Salt Lake Center
04:18PM 45.1908 -106.4781 296° West 247 284 22,000  Level Salt Lake Center
04:19PM 45.2183 -106.5678 294° West 247 284 22,000  Level Salt Lake Center
04:20PM 45.2447 -106.6564 293° West 247 284 22,000  Level Salt Lake Center
04:21PM 45.2708 -106.7444 293° West 247 284 22,000  Level Salt Lake Center
04:22PM 45.2989 -106.8336 294° West 247 284 22,000  Level Salt Lake Center
04:23PM 45.3264 -106.9231 294° West 247 284 22,000 -120 Level Salt Lake Center
04:24PM 45.3539 -107.0125 294° West 247 284 21,800 -420 Descending Salt Lake Center
04:25PM 45.3825 -107.1028 294° West 247 284 21,200 -720 Descending Salt Lake Center
04:26PM 45.4167 -107.2161 293° West 253 291 20,400 -840 Descending Salt Lake Center
04:27PM 45.4456 -107.3144 293° West 262 302 19,600 -840 Descending Salt Lake Center
04:28PM 45.4736 -107.4086 293° West 262 302 18,800 -1,020 Descending Salt Lake Center
04:29PM 45.5017 -107.5017 293° West 260 299 17,600 -1,020 Descending Salt Lake Center
04:30PM 45.5317 -107.6000 294° West 259 298 16,800 -840 Descending Salt Lake Center
04:31PM 45.5611 -107.7011 293° West 259 298 16,000 -840 Descending Salt Lake Center
04:32PM 45.5894 -107.7956 293° West 260 299 15,100 -840 Descending Salt Lake Center
04:33PM 45.6200 -107.8994 293° West 263 303 14,400 -1,020 Descending Salt Lake Center
04:34PM 45.6481 -107.9953 293° West 264 304 13,100 -1,380 Descending Salt Lake Center
04:35PM 45.6756 -108.0892 293° West 263 303 11,600 -1,560 Descending Salt Lake Center
04:36PM 45.7053 -108.1903 293° West 258 297 10,000 -1,560 Descending Salt Lake Center
04:37PM 45.7322 -108.2828 293° West 258 297 8,500 -1,860 Descending Salt Lake Center
04:38PM 45.7611 -108.3814 293° West 252 290 6,300 -1,800 Descending Salt Lake Center
04:39PM 45.7825 -108.4681 290° West 232 267 4,900 -1,140 Descending Salt Lake Center
04:41PM 45.7989 -108.5258 292° West 141 162 4,000 -900 Descending Salt Lake Center
04:42PM 45.8000 -108.5333 290° West  Level FlightAware Approximate
04:49PM 45.8077 -108.5429 290° West  Level Estimated